Time;durP1;ratioP1;P1;durP2;ratioP2;P2;SDS_P1;SDS_P2;PMS_P1;PMS_P2;Temp;Humidity;BMP_temperature;BMP_pressure;BME280_temperature;BME280_humidity;BME280_pressure;Samples;Min_cycle;Max_cycle;Signal;HPM_P1;HPM_P2
2022/12/19 00:01:22;;;;;;;;;;;1.60;99.90;;;;;;5095905;28;19936;-65
2022/12/19 00:03:49;;;;;;;;;;;1.60;99.90;;;;;;5095815;28;19998;-65
2022/12/19 00:06:16;;;;;;;;;;;1.60;99.90;;;;;;5095780;28;19908;-64
2022/12/19 00:08:42;;;;;;;;;;;1.60;99.90;;;;;;5095766;28;19908;-64
2022/12/19 00:11:08;;;;;;;;;;;1.60;99.90;;;;;;5095637;28;19920;-64
2022/12/19 00:13:34;;;;;;;;;;;1.70;99.90;;;;;;5095399;28;19920;-64
2022/12/19 00:16:01;;;;;;;;;;;1.70;99.90;;;;;;5095638;28;19908;-64
2022/12/19 00:18:27;;;;;;;;;;;1.70;99.90;;;;;;5095522;28;19912;-64
2022/12/19 00:20:53;;;;;;;;;;;1.70;99.90;;;;;;5077088;28;20392;-65
2022/12/19 00:23:18;;;;;;;;;;;1.70;99.90;;;;;;5095188;28;19909;-65
2022/12/19 00:25:44;;;;;;;;;;;1.70;99.90;;;;;;5095170;28;19908;-65
2022/12/19 00:28:09;;;;;;;;;;;1.80;99.90;;;;;;5095116;28;19915;-65
2022/12/19 00:30:35;;;;;;;;;;;1.80;99.90;;;;;;5094984;28;19912;-64
2022/12/19 00:33:00;;;;;;;;;;;1.80;99.90;;;;;;5095041;28;19908;-64
2022/12/19 00:35:26;;;;;;;;;;;1.70;99.90;;;;;;5094368;28;19938;-64
2022/12/19 00:37:51;;;;;;;;;;;1.80;99.90;;;;;;5094967;28;19916;-64
2022/12/19 00:40:17;;;;;;;;;;;1.70;99.90;;;;;;5094889;28;20292;-64
2022/12/19 00:42:42;;;;;;;;;;;1.70;99.90;;;;;;5095078;28;19912;-64
2022/12/19 00:45:08;;;;;;;;;;;1.70;99.90;;;;;;5095093;28;19990;-64
2022/12/19 00:47:33;;;;;;;;;;;1.70;99.90;;;;;;5094985;28;19962;-64
2022/12/19 00:49:59;;;;;;;;;;;1.70;99.90;;;;;;5094417;28;19916;-64
2022/12/19 00:52:24;;;;;;;;;;;1.70;99.90;;;;;;5094921;28;19915;-64
2022/12/19 00:54:50;;;;;;;;;;;1.70;99.90;;;;;;5094652;28;19951;-64
2022/12/19 00:57:15;;;;;;;;;;;1.70;99.90;;;;;;5076447;28;19915;-64
2022/12/19 00:59:41;;;;;;;;;;;1.70;99.90;;;;;;5094810;28;19916;-64
2022/12/19 01:02:06;;;;;;;;;;;1.70;99.90;;;;;;5094745;28;19912;-64
2022/12/19 01:04:32;;;;;;;;;;;1.70;99.90;;;;;;5094722;28;19960;-64
2022/12/19 01:06:57;;;;;;;;;;;1.80;99.90;;;;;;5094372;28;19908;-64
2022/12/19 01:09:23;;;;;;;;;;;1.80;99.90;;;;;;5094622;28;19908;-64
2022/12/19 01:14:34;;;;;;;;;;;1.80;99.90;;;;;;5094061;28;19942;-64
2022/12/19 01:16:59;;;;;;;;;;;1.80;99.90;;;;;;5094188;28;19961;-64
2022/12/19 01:19:25;;;;;;;;;;;1.80;99.90;;;;;;5094190;28;19915;-64
2022/12/19 01:21:51;;;;;;;;;;;1.90;99.90;;;;;;5094180;28;20003;-64
2022/12/19 01:24:16;;;;;;;;;;;1.90;99.90;;;;;;5094135;28;20400;-65
2022/12/19 01:26:42;;;;;;;;;;;1.90;99.90;;;;;;5094327;28;19956;-64
2022/12/19 01:29:07;;;;;;;;;;;1.90;99.90;;;;;;5094113;28;19909;-64
2022/12/19 01:31:32;;;;;;;;;;;1.90;99.90;;;;;;5094169;28;19916;-64
2022/12/19 01:33:58;;;;;;;;;;;1.90;99.90;;;;;;5093979;28;20373;-64
2022/12/19 01:36:24;;;;;;;;;;;2.00;99.90;;;;;;5075854;28;19908;-64
2022/12/19 01:38:49;;;;;;;;;;;2.00;99.90;;;;;;5093926;28;19931;-65
2022/12/19 01:41:15;;;;;;;;;;;2.00;99.90;;;;;;5093817;28;19960;-64
2022/12/19 01:44:00;;;;;;;;;;;2.00;99.90;;;;;;5093844;28;19912;-66
2022/12/19 01:46:32;;;;;;;;;;;2.10;99.90;;;;;;5093543;28;20286;-64
2022/12/19 01:48:58;;;;;;;;;;;2.10;99.90;;;;;;5094062;28;20266;-64
2022/12/19 01:51:25;;;;;;;;;;;2.10;99.90;;;;;;5093582;28;20015;-64
2022/12/19 01:53:55;;;;;;;;;;;2.10;99.90;;;;;;5094049;28;19912;-64
2022/12/19 01:56:23;;;;;;;;;;;2.20;99.90;;;;;;5076045;28;20390;-64
2022/12/19 01:58:50;;;;;;;;;;;2.20;99.90;;;;;;5093707;28;19908;-64
2022/12/19 02:01:16;;;;;;;;;;;2.20;99.90;;;;;;5093654;28;19908;-65
2022/12/19 02:03:43;;;;;;;;;;;2.20;99.90;;;;;;5093960;28;20343;-66
2022/12/19 02:06:09;;;;;;;;;;;2.10;99.90;;;;;;5093616;28;19958;-65
2022/12/19 02:08:35;;;;;;;;;;;2.20;99.90;;;;;;5093887;28;20349;-64
2022/12/19 02:11:00;;;;;;;;;;;2.20;99.90;;;;;;5093550;28;19941;-64
2022/12/19 02:13:26;;;;;;;;;;;2.20;99.90;;;;;;5093814;28;20007;-64
2022/12/19 02:15:55;;;;;;;;;;;2.20;99.90;;;;;;5075490;28;19908;-64
2022/12/19 02:18:40;;;;;;;;;;;2.20;99.90;;;;;;5093804;28;20011;-64
2022/12/19 02:21:26;;;;;;;;;;;2.30;99.90;;;;;;5093299;28;19916;-64
2022/12/19 02:24:11;;;;;;;;;;;2.30;99.90;;;;;;5075253;28;19928;-64
2022/12/19 02:26:46;;;;;;;;;;;2.30;99.90;;;;;;5093266;28;19953;-64
2022/12/19 02:29:22;;;;;;;;;;;2.40;99.90;;;;;;5093411;28;19915;-65
2022/12/19 02:31:51;;;;;;;;;;;2.50;99.90;;;;;;5093323;28;19912;-65
2022/12/19 02:34:22;;;;;;;;;;;2.50;99.90;;;;;;5093349;28;19908;-65
2022/12/19 02:36:52;;;;;;;;;;;2.50;99.90;;;;;;5093465;28;19965;-64
2022/12/19 02:39:25;;;;;;;;;;;2.60;99.90;;;;;;5093593;28;19954;-65
2022/12/19 02:41:54;;;;;;;;;;;2.70;99.90;;;;;;5093326;28;19948;-64
2022/12/19 02:44:23;;;;;;;;;;;2.60;99.90;;;;;;5075266;28;19962;-65
2022/12/19 02:46:49;;;;;;;;;;;2.70;99.90;;;;;;5093246;28;19909;-65
2022/12/19 02:49:14;;;;;;;;;;;2.70;99.90;;;;;;5093476;28;19970;-65
2022/12/19 02:51:40;;;;;;;;;;;2.70;99.90;;;;;;5093030;28;20392;-65
2022/12/19 02:54:06;;;;;;;;;;;2.70;99.90;;;;;;5093175;28;19916;-65
2022/12/19 02:56:37;;;;;;;;;;;2.70;99.90;;;;;;5093146;28;19908;-65
2022/12/19 02:59:22;;;;;;;;;;;2.80;99.90;;;;;;5077738;28;20001;-64
2022/12/19 03:02:06;;;;;;;;;;;2.80;99.90;;;;;;5078597;28;19908;-65
2022/12/19 03:04:50;;;;;;;;;;;2.80;99.90;;;;;;5096998;28;20381;-65
2022/12/19 03:07:35;;;;;;;;;;;2.80;99.90;;;;;;5096726;28;19915;-65
2022/12/19 03:10:21;;;;;;;;;;;2.90;99.90;;;;;;5081467;28;19908;-64
2022/12/19 03:12:50;;;;;;;;;;;3.00;99.90;;;;;;5096487;28;19908;-64
2022/12/19 03:15:15;;;;;;;;;;;3.10;99.90;;;;;;5096791;28;19987;-64
2022/12/19 03:17:41;;;;;;;;;;;3.10;99.90;;;;;;5096508;28;20330;-64
2022/12/19 03:20:08;;;;;;;;;;;3.10;99.90;;;;;;5096437;28;19962;-64
2022/12/19 03:22:33;;;;;;;;;;;3.10;99.90;;;;;;5096395;28;20280;-64
2022/12/19 03:24:59;;;;;;;;;;;3.10;99.90;;;;;;5096662;28;19908;-64
2022/12/19 03:27:28;;;;;;;;;;;3.20;99.90;;;;;;5096585;28;20004;-64
2022/12/19 03:30:02;;;;;;;;;;;3.20;99.90;;;;;;5078123;28;20020;-64
2022/12/19 03:32:29;;;;;;;;;;;3.30;99.90;;;;;;5096188;28;19912;-64
2022/12/19 03:34:59;;;;;;;;;;;3.30;99.90;;;;;;5096433;28;19915;-64
2022/12/19 03:37:27;;;;;;;;;;;3.40;99.90;;;;;;5096169;28;19908;-64
2022/12/19 03:39:55;;;;;;;;;;;3.40;99.90;;;;;;5096330;28;20396;-64
2022/12/19 03:45:09;;;;;;;;;;;3.40;99.90;;;;;;5095831;28;20377;-64
2022/12/19 03:47:45;;;;;;;;;;;3.40;99.90;;;;;;5095929;28;20019;-64
2022/12/19 03:50:11;;;;;;;;;;;3.50;99.90;;;;;;5095582;28;19920;-64
2022/12/19 03:52:56;;;;;;;;;;;3.50;99.90;;;;;;5095838;28;20006;-64
2022/12/19 03:55:29;;;;;;;;;;;3.60;99.90;;;;;;5095666;28;19915;-64
2022/12/19 03:57:56;;;;;;;;;;;3.60;99.90;;;;;;5077664;28;19994;-64
2022/12/19 04:00:24;;;;;;;;;;;3.70;99.90;;;;;;5095698;28;19914;-64
2022/12/19 04:02:51;;;;;;;;;;;3.70;99.90;;;;;;5095665;28;19916;-64
2022/12/19 04:05:19;;;;;;;;;;;3.70;99.90;;;;;;5095631;28;19909;-65
2022/12/19 04:07:45;;;;;;;;;;;3.70;99.90;;;;;;5095553;28;19916;-64
2022/12/19 04:10:13;;;;;;;;;;;3.80;99.90;;;;;;5095449;28;19969;-64
2022/12/19 04:12:44;;;;;;;;;;;3.70;99.90;;;;;;5095437;28;19951;-64
2022/12/19 04:15:10;;;;;;;;;;;3.70;99.90;;;;;;5077377;28;19908;-64
2022/12/19 04:17:54;;;;;;;;;;;3.70;99.90;;;;;;5095295;28;19908;-64
2022/12/19 04:20:20;;;;;;;;;;;3.70;99.90;;;;;;5095284;28;19908;-64
2022/12/19 04:22:57;;;;;;;;;;;3.70;99.90;;;;;;5095240;28;19987;-65
2022/12/19 04:25:26;;;;;;;;;;;3.70;99.90;;;;;;5095162;28;19912;-64
2022/12/19 04:27:53;;;;;;;;;;;3.70;99.90;;;;;;5095177;28;20433;-64
2022/12/19 04:30:19;;;;;;;;;;;3.70;99.90;;;;;;5095045;28;19916;-64
2022/12/19 04:32:45;;;;;;;;;;;3.70;99.90;;;;;;5095019;28;19915;-64
2022/12/19 04:35:11;;;;;;;;;;;3.80;99.90;;;;;;5094990;28;19912;-64
2022/12/19 04:37:37;;;;;;;;;;;3.80;99.90;;;;;;5094985;28;20046;-64
2022/12/19 04:40:03;;;;;;;;;;;3.80;99.90;;;;;;5094924;28;19912;-64
2022/12/19 04:42:28;;;;;;;;;;;3.80;99.90;;;;;;5094879;28;19908;-64
2022/12/19 04:44:53;;;;;;;;;;;3.80;99.90;;;;;;5094811;28;20262;-65
2022/12/19 04:47:19;;;;;;;;;;;3.90;99.90;;;;;;5094763;28;20002;-64
2022/12/19 04:49:44;;;;;;;;;;;3.90;99.90;;;;;;5094719;28;19924;-65
2022/12/19 04:52:10;;;;;;;;;;;4.00;99.90;;;;;;5076459;28;19952;-65
2022/12/19 04:54:35;;;;;;;;;;;4.00;99.90;;;;;;5094655;28;20358;-65
2022/12/19 04:57:01;;;;;;;;;;;4.10;99.90;;;;;;5094628;28;20312;-65
2022/12/19 04:59:26;;;;;;;;;;;4.10;99.90;;;;;;5094779;28;19931;-65
2022/12/19 05:01:52;;;;;;;;;;;4.20;99.90;;;;;;5094492;28;19957;-65
2022/12/19 05:04:17;;;;;;;;;;;4.20;99.90;;;;;;5094416;28;19956;-65
2022/12/19 05:06:43;;;;;;;;;;;4.20;99.90;;;;;;5094451;28;19912;-64
2022/12/19 05:09:09;;;;;;;;;;;4.20;99.90;;;;;;5094359;28;19912;-65
2022/12/19 05:11:34;;;;;;;;;;;4.20;99.90;;;;;;5094269;28;19919;-64
2022/12/19 05:13:59;;;;;;;;;;;4.20;99.90;;;;;;5094569;28;19912;-64
2022/12/19 05:16:25;;;;;;;;;;;4.30;99.90;;;;;;5094196;28;20369;-64
2022/12/19 05:18:52;;;;;;;;;;;4.30;99.90;;;;;;5094465;28;19908;-65
2022/12/19 05:21:17;;;;;;;;;;;4.30;99.90;;;;;;5094020;28;20004;-65
2022/12/19 05:23:43;;;;;;;;;;;4.40;99.90;;;;;;5094405;28;19912;-64
2022/12/19 05:26:10;;;;;;;;;;;4.50;99.90;;;;;;5094424;28;20365;-64
2022/12/19 05:28:35;;;;;;;;;;;4.60;99.90;;;;;;5076019;28;19947;-64
2022/12/19 05:31:18;;;;;;;;;;;4.60;99.90;;;;;;5093952;28;19912;-64
2022/12/19 05:33:44;;;;;;;;;;;4.60;99.90;;;;;;5094203;28;20360;-64
2022/12/19 05:36:10;;;;;;;;;;;4.60;99.90;;;;;;5094067;28;19961;-64
2022/12/19 05:38:35;;;;;;;;;;;4.70;99.90;;;;;;5093933;28;19950;-65
2022/12/19 05:41:09;;;;;;;;;;;4.70;99.90;;;;;;5093932;28;19908;-64
2022/12/19 05:43:35;;;;;;;;;;;4.70;99.90;;;;;;5094108;28;19915;-64
2022/12/19 05:46:00;;;;;;;;;;;4.80;99.90;;;;;;5093843;28;19908;-64
2022/12/19 05:48:26;;;;;;;;;;;4.80;99.90;;;;;;5093797;28;19908;-64
2022/12/19 05:50:51;;;;;;;;;;;4.90;99.90;;;;;;5093531;28;19920;-64
2022/12/19 05:53:17;;;;;;;;;;;4.90;99.90;;;;;;5094028;28;19912;-65
2022/12/19 05:55:43;;;;;;;;;;;4.80;99.90;;;;;;5075653;28;19912;-65
2022/12/19 05:58:09;;;;;;;;;;;4.80;99.90;;;;;;5093715;28;20335;-65
2022/12/19 06:00:34;;;;;;;;;;;4.80;99.90;;;;;;5093698;28;20365;-64
2022/12/19 06:02:59;;;;;;;;;;;4.80;99.90;;;;;;5093657;28;20289;-64
2022/12/19 06:05:25;;;;;;;;;;;4.80;99.90;;;;;;5075564;28;19908;-64
2022/12/19 06:07:50;;;;;;;;;;;4.80;99.90;;;;;;5093626;28;19960;-65
2022/12/19 06:10:16;;;;;;;;;;;4.90;99.90;;;;;;5093540;28;19915;-65
2022/12/19 06:12:41;;;;;;;;;;;4.90;99.90;;;;;;5093717;28;19908;-65
2022/12/19 06:15:07;;;;;;;;;;;4.90;99.90;;;;;;5093520;28;19931;-65
2022/12/19 06:17:33;;;;;;;;;;;4.90;99.90;;;;;;5075459;28;19912;-65
2022/12/19 06:19:58;;;;;;;;;;;4.90;99.90;;;;;;5093433;28;19915;-65
2022/12/19 06:22:24;;;;;;;;;;;4.90;99.90;;;;;;5093479;28;19956;-65
2022/12/19 06:24:49;;;;;;;;;;;5.00;99.90;;;;;;5093490;28;19908;-65
2022/12/19 06:27:15;;;;;;;;;;;5.00;99.90;;;;;;5075433;28;19995;-65
2022/12/19 06:29:40;;;;;;;;;;;5.20;99.90;;;;;;5093425;28;20370;-65
2022/12/19 06:32:06;;;;;;;;;;;5.30;99.90;;;;;;5093267;28;19912;-65
2022/12/19 06:34:31;;;;;;;;;;;5.30;99.90;;;;;;5097201;28;19908;-65
2022/12/19 06:36:56;;;;;;;;;;;5.40;99.90;;;;;;5097277;28;20006;-65
2022/12/19 06:39:22;;;;;;;;;;;5.40;99.90;;;;;;5097270;28;20370;-65
2022/12/19 06:44:33;;;;;;;;;;;5.70;99.90;;;;;;5096973;28;19957;-65
2022/12/19 06:46:58;;;;;;;;;;;5.80;99.90;;;;;;5090433;28;19912;-65
2022/12/19 06:49:24;;;;;;;;;;;5.90;99.90;;;;;;5097006;28;20327;-65
2022/12/19 06:51:49;;;;;;;;;;;5.90;99.90;;;;;;5098493;28;19928;-65
2022/12/19 06:54:15;;;;;;;;;;;6.00;99.90;;;;;;5096874;28;19908;-65
2022/12/19 06:56:41;;;;;;;;;;;6.00;99.90;;;;;;5092104;28;20377;-65
2022/12/19 06:59:10;;;;;;;;;;;6.10;99.90;;;;;;5096484;28;20019;-65
2022/12/19 07:01:55;;;;;;;;;;;6.10;99.90;;;;;;5096461;28;19919;-65
2022/12/19 07:04:28;;;;;;;;;;;6.10;99.90;;;;;;5096058;28;19908;-65
2022/12/19 07:06:54;;;;;;;;;;;6.10;99.90;;;;;;5090531;28;20001;-65
2022/12/19 07:09:20;;;;;;;;;;;6.20;99.90;;;;;;5098965;28;20003;-65
2022/12/19 07:11:45;;;;;;;;;;;6.10;99.90;;;;;;5091500;28;19920;-66
2022/12/19 07:14:11;;;;;;;;;;;6.10;99.90;;;;;;5075857;28;19909;-65
2022/12/19 07:16:37;;;;;;;;;;;6.10;99.90;;;;;;5097247;28;19935;-65
2022/12/19 07:19:03;;;;;;;;;;;6.20;99.90;;;;;;5100050;28;20221;-65
2022/12/19 07:21:28;;;;;;;;;;;6.10;99.90;;;;;;5103541;28;19926;-65
2022/12/19 07:23:54;;;;;;;;;;;6.10;99.90;;;;;;5096298;28;19908;-65
2022/12/19 07:26:19;;;;;;;;;;;6.20;99.90;;;;;;5095208;28;20466;-65
2022/12/19 07:28:45;;;;;;;;;;;6.20;99.90;;;;;;5083675;28;20402;-65
2022/12/19 07:31:10;;;;;;;;;;;6.20;99.90;;;;;;5084395;28;19923;-66
2022/12/19 07:33:36;;;;;;;;;;;6.20;99.90;;;;;;5085806;28;19955;-66
2022/12/19 07:36:01;;;;;;;;;;;6.20;99.90;;;;;;5097246;28;20388;-67
2022/12/19 07:38:27;;;;;;;;;;;6.30;99.90;;;;;;5094761;28;19916;-68
2022/12/19 07:40:52;;;;;;;;;;;6.30;99.90;;;;;;5095923;28;19919;-68
2022/12/19 07:43:17;;;;;;;;;;;6.40;99.90;;;;;;5093999;28;19913;-68
2022/12/19 07:45:43;;;;;;;;;;;6.40;99.90;;;;;;5098108;28;20422;-67
2022/12/19 07:48:09;;;;;;;;;;;6.50;99.90;;;;;;5074748;28;19908;-68
2022/12/19 07:50:34;;;;;;;;;;;6.60;99.90;;;;;;5073728;28;19920;-68
2022/12/19 07:53:00;;;;;;;;;;;6.60;99.90;;;;;;5074945;28;19916;-69
2022/12/19 07:55:25;;;;;;;;;;;6.60;99.90;;;;;;5075146;28;19915;-68
2022/12/19 07:57:51;;;;;;;;;;;6.50;99.90;;;;;;5075204;28;20324;-68
2022/12/19 08:00:16;;;;;;;;;;;6.60;99.90;;;;;;5069749;28;19999;-69
2022/12/19 08:02:42;;;;;;;;;;;6.50;99.90;;;;;;5074982;28;19908;-68
2022/12/19 08:05:07;;;;;;;;;;;6.50;99.90;;;;;;5074742;28;20437;-68
2022/12/19 08:07:33;;;;;;;;;;;6.60;99.90;;;;;;5073412;28;19916;-68
2022/12/19 08:09:59;;;;;;;;;;;6.70;99.90;;;;;;5074917;28;19916;-68
2022/12/19 08:12:25;;;;;;;;;;;6.70;99.90;;;;;;5074749;28;19912;-68
2022/12/19 08:14:51;;;;;;;;;;;6.80;99.90;;;;;;5073469;28;19966;-68
2022/12/19 08:17:17;;;;;;;;;;;6.80;99.90;;;;;;5073534;28;19908;-67
2022/12/19 08:19:43;;;;;;;;;;;6.90;99.90;;;;;;5073431;28;20392;-65
2022/12/19 08:22:09;;;;;;;;;;;7.00;99.90;;;;;;5073837;28;19928;-66
2022/12/19 08:24:34;;;;;;;;;;;7.00;99.90;;;;;;5072279;28;19912;-66
2022/12/19 08:27:00;;;;;;;;;;;7.10;99.90;;;;;;5075506;28;19998;-66
2022/12/19 08:29:25;;;;;;;;;;;7.10;99.90;;;;;;5072681;28;19920;-66
2022/12/19 08:31:50;;;;;;;;;;;7.10;99.90;;;;;;5074156;28;19912;-66
2022/12/19 08:34:16;;;;;;;;;;;7.20;99.90;;;;;;5074115;28;19916;-66
2022/12/19 08:36:41;;;;;;;;;;;7.10;99.90;;;;;;5072604;28;20332;-67
2022/12/19 08:39:07;;;;;;;;;;;7.10;99.90;;;;;;5072713;28;19919;-66
2022/12/19 08:41:33;;;;;;;;;;;7.20;99.90;;;;;;5074097;28;19916;-66
2022/12/19 08:43:59;;;;;;;;;;;7.20;99.90;;;;;;5074073;28;19936;-67
2022/12/19 08:46:25;;;;;;;;;;;7.30;99.90;;;;;;5077418;28;19919;-67
2022/12/19 08:48:51;;;;;;;;;;;7.30;99.90;;;;;;5073961;28;19908;-67
2022/12/19 08:51:16;;;;;;;;;;;7.20;99.90;;;;;;5088606;28;19965;-67
2022/12/19 08:53:43;;;;;;;;;;;7.30;99.90;;;;;;5075783;28;20384;-67
2022/12/19 08:56:15;;;;;;;;;;;7.30;99.90;;;;;;5098676;28;20250;-67
2022/12/19 08:58:40;;;;;;;;;;;7.30;99.90;;;;;;5080750;28;19962;-67
2022/12/19 09:01:08;;;;;;;;;;;7.30;99.90;;;;;;5093683;28;19936;-66
2022/12/19 09:03:34;;;;;;;;;;;7.30;99.90;;;;;;5093990;28;19920;-66
2022/12/19 09:06:01;;;;;;;;;;;7.40;99.90;;;;;;5092864;28;19957;-66
2022/12/19 09:08:27;;;;;;;;;;;7.50;99.90;;;;;;5092224;28;19913;-66
2022/12/19 09:10:57;;;;;;;;;;;7.50;99.90;;;;;;5093442;28;19919;-66
2022/12/19 09:13:23;;;;;;;;;;;7.50;99.90;;;;;;5075738;28;20281;-66
2022/12/19 09:15:49;;;;;;;;;;;7.60;99.90;;;;;;5094186;28;20002;-66
2022/12/19 09:18:14;;;;;;;;;;;7.60;99.90;;;;;;5066201;28;19955;-69
2022/12/19 09:20:40;;;;;;;;;;;7.60;99.90;;;;;;5073827;28;19909;-71
2022/12/19 09:23:06;;;;;;;;;;;7.60;99.90;;;;;;5073728;28;19908;-72
2022/12/19 09:25:31;;;;;;;;;;;7.60;99.90;;;;;;5091650;28;19919;-72
2022/12/19 09:27:57;;;;;;;;;;;7.70;99.90;;;;;;5055432;28;19982;-73
2022/12/19 09:30:22;;;;;;;;;;;7.70;99.90;;;;;;5072821;28;19954;-70
2022/12/19 09:32:47;;;;;;;;;;;7.70;99.90;;;;;;5055555;28;20428;-70
2022/12/19 09:35:13;;;;;;;;;;;7.70;99.90;;;;;;5087422;28;19916;-70
2022/12/19 09:37:39;;;;;;;;;;;7.70;99.90;;;;;;5081611;28;20316;-71
2022/12/19 09:40:04;;;;;;;;;;;7.80;99.90;;;;;;5096721;28;19915;-71
2022/12/19 09:42:47;;;;;;;;;;;7.80;99.90;;;;;;5093424;28;20357;-72
2022/12/19 09:45:24;;;;;;;;;;;7.70;99.90;;;;;;5089061;28;19913;-74
2022/12/19 09:47:54;;;;;;;;;;;7.70;99.90;;;;;;5092308;28;19933;-71
2022/12/19 09:50:40;;;;;;;;;;;7.70;99.90;;;;;;5093188;28;19920;-71
2022/12/19 09:53:12;;;;;;;;;;;7.70;99.90;;;;;;5093414;28;19908;-71
2022/12/19 09:55:40;;;;;;;;;;;7.80;99.90;;;;;;5092915;28;20010;-71
2022/12/19 09:58:17;;;;;;;;;;;7.80;99.90;;;;;;5066763;28;20003;-71
2022/12/19 10:00:46;;;;;;;;;;;7.80;99.90;;;;;;5073089;28;19908;-71
2022/12/19 10:03:31;;;;;;;;;;;7.90;99.90;;;;;;5073303;28;19993;-71
2022/12/19 10:06:04;;;;;;;;;;;8.00;99.90;;;;;;5074138;28;19915;-71
2022/12/19 10:08:31;;;;;;;;;;;8.10;99.90;;;;;;5085528;28;19999;-71
2022/12/19 10:11:02;;;;;;;;;;;8.20;99.90;;;;;;5079277;28;19920;-71
2022/12/19 10:13:33;;;;;;;;;;;8.20;99.90;;;;;;5078763;28;20305;-70
2022/12/19 10:16:12;;;;;;;;;;;8.30;99.90;;;;;;5079212;28;19908;-70
2022/12/19 10:18:43;;;;;;;;;;;8.30;99.90;;;;;;5079038;28;20006;-71
2022/12/19 10:21:12;;;;;;;;;;;8.30;99.90;;;;;;5080801;28;20290;-70
2022/12/19 10:23:57;;;;;;;;;;;8.20;99.90;;;;;;5077901;28;19951;-72
2022/12/19 10:26:28;;;;;;;;;;;8.20;99.90;;;;;;5092623;28;19919;-71
2022/12/19 10:29:03;;;;;;;;;;;8.20;99.90;;;;;;5085510;28;19912;-71
2022/12/19 10:31:32;;;;;;;;;;;8.20;99.90;;;;;;5096018;28;20281;-70
2022/12/19 10:34:05;;;;;;;;;;;8.30;99.90;;;;;;5092591;28;19959;-71
2022/12/19 10:36:36;;;;;;;;;;;8.40;99.90;;;;;;5078953;28;19923;-70
2022/12/19 10:39:08;;;;;;;;;;;8.40;99.90;;;;;;5096728;28;19912;-71
2022/12/19 10:41:33;;;;;;;;;;;8.50;99.90;;;;;;5096529;28;20285;-71
2022/12/19 10:44:02;;;;;;;;;;;8.50;99.90;;;;;;5077571;28;19919;-71
2022/12/19 10:46:34;;;;;;;;;;;8.70;99.90;;;;;;5092235;28;19913;-70
2022/12/19 10:49:00;;;;;;;;;;;8.70;99.90;;;;;;5097375;28;19912;-70
2022/12/19 10:51:27;;;;;;;;;;;8.70;99.90;;;;;;5088229;28;19926;-70
2022/12/19 10:53:54;;;;;;;;;;;8.70;99.90;;;;;;5095742;28;19995;-72
2022/12/19 10:56:21;;;;;;;;;;;8.80;99.90;;;;;;5096494;28;20361;-70
2022/12/19 10:58:50;;;;;;;;;;;8.80;99.90;;;;;;5077912;28;19908;-71
2022/12/19 11:01:21;;;;;;;;;;;8.70;99.90;;;;;;5096578;28;19908;-71
2022/12/19 11:03:50;;;;;;;;;;;8.80;99.90;;;;;;5062921;28;19966;-70
2022/12/19 11:06:35;;;;;;;;;;;8.90;99.90;;;;;;5083683;28;20402;-71
2022/12/19 11:09:21;;;;;;;;;;;8.90;99.90;;;;;;5094240;28;20368;-70
2022/12/19 11:11:47;;;;;;;;;;;8.90;99.90;;;;;;5095400;28;19912;-70
2022/12/19 11:14:21;;;;;;;;;;;8.90;99.90;;;;;;5076670;28;20365;-70
2022/12/19 11:16:46;;;;;;;;;;;9.00;99.90;;;;;;5092939;28;19912;-71
2022/12/19 11:19:20;;;;;;;;;;;9.00;99.90;;;;;;5076775;28;19918;-71
2022/12/19 11:21:45;;;;;;;;;;;9.00;99.90;;;;;;5057688;28;19912;-70
2022/12/19 11:24:16;;;;;;;;;;;9.00;99.90;;;;;;5091459;28;19957;-72
2022/12/19 11:26:43;;;;;;;;;;;9.00;99.90;;;;;;5088264;28;19919;-72
2022/12/19 11:29:25;;;;;;;;;;;9.10;99.90;;;;;;5096011;28;19909;-69
2022/12/19 11:31:55;;;;;;;;;;;9.10;99.90;;;;;;5077234;28;19916;-71
2022/12/19 11:34:22;;;;;;;;;;;9.10;99.90;;;;;;5095607;28;19919;-71
2022/12/19 11:36:54;;;;;;;;;;;9.00;99.90;;;;;;5077561;28;19991;-72
2022/12/19 11:39:22;;;;;;;;;;;9.00;99.90;;;;;;5095822;28;20415;-71
2022/12/19 11:41:53;;;;;;;;;;;9.00;99.90;;;;;;5070453;28;19912;-72
2022/12/19 11:44:24;;;;;;;;;;;9.10;99.90;;;;;;5075678;28;19908;-72
2022/12/19 11:46:55;;;;;;;;;;;9.00;99.90;;;;;;5075254;28;19916;-70
2022/12/19 11:52:13;;;;;;;;;;;9.00;99.90;;;;;;5088010;27;19922;-70
2022/12/19 11:54:49;;;;;;;;;;;9.00;99.90;;;;;;5088148;28;19913;-70
2022/12/19 11:57:15;;;;;;;;;;;9.00;99.90;;;;;;5123616;28;20358;-70
2022/12/19 11:59:40;;;;;;;;;;;9.00;99.90;;;;;;5123290;28;19908;-71
2022/12/19 12:02:18;;;;;;;;;;;9.00;99.90;;;;;;5122679;28;20396;-71
2022/12/19 12:04:48;;;;;;;;;;;9.00;99.90;;;;;;5084459;28;19912;-71
2022/12/19 12:07:14;;;;;;;;;;;9.00;99.90;;;;;;5099267;28;19920;-70
2022/12/19 12:09:48;;;;;;;;;;;9.00;99.90;;;;;;5089020;28;19915;-71
2022/12/19 12:12:21;;;;;;;;;;;9.00;99.90;;;;;;5089744;28;19917;-72
2022/12/19 12:15:06;;;;;;;;;;;9.00;99.90;;;;;;5069763;28;20423;-71
2022/12/19 12:17:40;;;;;;;;;;;9.00;99.90;;;;;;5079618;28;20426;-71
2022/12/19 12:20:25;;;;;;;;;;;9.00;99.90;;;;;;5115202;28;19916;-70
2022/12/19 12:22:57;;;;;;;;;;;9.00;99.90;;;;;;5087840;28;19908;-71
2022/12/19 12:25:29;;;;;;;;;;;9.00;99.90;;;;;;5072621;28;20421;-71
2022/12/19 12:28:14;;;;;;;;;;;9.00;99.90;;;;;;5072631;28;19912;-71
2022/12/19 12:30:46;;;;;;;;;;;9.00;99.90;;;;;;5086463;28;20022;-72
2022/12/19 12:33:24;;;;;;;;;;;9.00;99.90;;;;;;5122876;28;19995;-72
2022/12/19 12:35:54;;;;;;;;;;;9.10;99.90;;;;;;5084715;28;19978;-72
2022/12/19 12:38:41;;;;;;;;;;;9.10;99.90;;;;;;5068107;28;19996;-72
2022/12/19 12:46:38;;;;;;;;;;;9.10;99.90;;;;;;5089594;28;19916;-70
2022/12/19 12:49:05;;;;;;;;;;;9.10;99.90;;;;;;5090017;28;19958;-69
2022/12/19 12:51:32;;;;;;;;;;;9.10;99.90;;;;;;5081274;28;20286;-70
2022/12/19 12:54:03;;;;;;;;;;;9.10;99.90;;;;;;5089188;28;20660;-70
2022/12/19 12:56:29;;;;;;;;;;;9.00;99.90;;;;;;5082224;28;20279;-71
2022/12/19 13:01:34;;;;;;;;;;;9.20;99.90;;;;;;5089910;27;20303;-69
2022/12/19 13:07:10;;;;;;;;;;;9.30;99.90;;;;;;5089712;27;19916;-70
2022/12/19 13:09:36;;;;;;;;;;;9.40;99.90;;;;;;5086506;28;19948;-71
2022/12/19 13:15:15;;;;;;;;;;;9.40;99.90;;;;;;5073300;28;20385;-73
2022/12/19 13:17:43;;;;;;;;;;;9.40;99.90;;;;;;5071116;28;19920;-71
2022/12/19 13:23:04;;;;;;;;;;;9.50;99.90;;;;;;5090748;28;19922;-70
2022/12/19 13:25:35;;;;;;;;;;;9.50;99.90;;;;;;5072384;28;20012;-71
2022/12/19 13:30:56;;;;;;;;;;;9.50;99.90;;;;;;5107294;27;1868231;-71
2022/12/19 13:33:22;;;;;;;;;;;9.50;99.90;;;;;;5155965;27;19912;-71
2022/12/19 13:35:47;;;;;;;;;;;9.60;99.90;;;;;;5121202;27;19937;-71
2022/12/19 13:43:44;;;;;;;;;;;9.60;99.90;;;;;;5090527;27;20288;-68
2022/12/19 13:43:46;;;;;;;;;;;9.60;99.90;;;;;;5100856;28;19913;-67
2022/12/19 13:46:32;;;;;;;;;;;9.60;99.90;;;;;;5076427;28;19992;-70
2022/12/19 13:49:02;;;;;;;;;;;9.70;99.90;;;;;;5087207;28;19912;-71
2022/12/19 13:51:38;;;;;;;;;;;9.70;99.90;;;;;;5089224;28;19965;-70
2022/12/19 13:54:16;;;;;;;;;;;9.70;99.90;;;;;;5088112;28;20389;-70
2022/12/19 13:56:42;;;;;;;;;;;9.70;99.90;;;;;;5080315;28;20424;-68
2022/12/19 13:59:08;;;;;;;;;;;9.60;99.90;;;;;;5104502;28;19924;-70
2022/12/19 14:01:34;;;;;;;;;;;9.60;99.90;;;;;;5090257;28;20358;-70
2022/12/19 14:04:04;;;;;;;;;;;9.60;99.90;;;;;;5090155;28;19909;-70
2022/12/19 14:06:37;;;;;;;;;;;9.60;99.90;;;;;;5091739;28;19920;-70
2022/12/19 14:09:05;;;;;;;;;;;9.70;99.90;;;;;;5098130;28;19985;-70
2022/12/19 14:11:33;;;;;;;;;;;9.60;99.90;;;;;;5076917;28;19913;-70
2022/12/19 14:16:46;;;;;;;;;;;9.70;99.90;;;;;;5080297;28;20439;-70
2022/12/19 14:19:27;;;;;;;;;;;9.60;99.90;;;;;;5082318;28;20280;-70
2022/12/19 14:21:53;;;;;;;;;;;9.60;99.90;;;;;;5090608;28;19961;-70
2022/12/19 14:24:21;;;;;;;;;;;9.60;99.90;;;;;;5093629;28;20391;-70
2022/12/19 14:26:48;;;;;;;;;;;9.60;99.90;;;;;;5089657;28;19915;-69
2022/12/19 14:29:20;;;;;;;;;;;9.60;99.90;;;;;;5088270;28;19916;-69
2022/12/19 14:31:46;;;;;;;;;;;9.60;99.90;;;;;;5091060;28;19915;-68
2022/12/19 14:34:14;;;;;;;;;;;9.60;99.90;;;;;;5090472;28;19916;-70
2022/12/19 14:36:45;;;;;;;;;;;9.60;99.90;;;;;;5069727;28;19913;-71
2022/12/19 14:39:15;;;;;;;;;;;9.60;99.90;;;;;;5086826;28;19920;-70
2022/12/19 14:44:46;;;;;;;;;;;9.50;99.90;;;;;;5126333;28;19911;-70
2022/12/19 14:47:13;;;;;;;;;;;9.50;99.90;;;;;;5105672;28;20296;-70
2022/12/19 14:49:39;;;;;;;;;;;9.50;99.90;;;;;;5091584;28;20333;-70
2022/12/19 14:52:24;;;;;;;;;;;9.40;99.90;;;;;;5088180;28;20012;-70
2022/12/19 14:55:10;;;;;;;;;;;9.40;99.90;;;;;;5091985;28;19920;-70
2022/12/19 14:57:35;;;;;;;;;;;9.40;99.90;;;;;;5076007;28;20004;-70
2022/12/19 15:00:01;;;;;;;;;;;9.40;99.90;;;;;;5087512;28;20011;-72
2022/12/19 15:02:29;;;;;;;;;;;9.30;99.90;;;;;;5061500;28;19919;-70
2022/12/19 15:05:00;;;;;;;;;;;9.30;99.90;;;;;;5096403;28;20365;-70
2022/12/19 15:07:27;;;;;;;;;;;9.40;99.90;;;;;;5095893;28;19912;-70
2022/12/19 15:09:56;;;;;;;;;;;9.30;99.90;;;;;;5096166;28;19915;-70
2022/12/19 15:15:30;;;;;;;;;;;9.30;99.90;;;;;;5075803;28;19915;-71
2022/12/19 15:17:55;;;;;;;;;;;9.30;99.90;;;;;;5077223;28;20000;-70
2022/12/19 15:20:21;;;;;;;;;;;9.20;99.90;;;;;;5096002;28;19995;-70
2022/12/19 15:22:46;;;;;;;;;;;9.20;99.90;;;;;;5077527;28;19912;-70